Grove, OK

7:42 PM CDT on July 30, 2015 (GMT -0500)
Grove Municipal | | Change Station
CLOSE
Current Station
Airport
Location: Grove,
Elevation: 833 ft
Nearby Weather Stations

Elev 833 ft 36.60 °N, 94.74 °W | Updated 7 minutes ago

Clear
Clear
86 °F
Feels Like 89 °F
N
4
Wind Variable Wind from East

Today
High -- | Low -- °F
--% Chance of Precip.
Yesterday
High -- | Low -- °F
Precip. -- in
6:23 AM 8:27 PM
Full, 100% visible
Pressure 30.11 in
Visibility 10.0 miles
Clouds Clear
Heat Index 89 °F
Dew Point 68 °F
Humidity 55%
Rainfall 0.00 in
Snow Depth Not available.
UV 0 out of 12
Pollen 4.70 out of 12
Air Quality Not available.
Flu Activity Not available.
METAR KGMJ 310035Z AUTO 08003KT 10SM CLR 30/20 A3011 RMK AO2

More Conditions Fewer Conditions

Pressure 30.11 in
Visibility 10.0 miles
Clouds Clear
Heat Index 89 °F
Dew Point 68 °F
Humidity 55%
Rainfall 0.00 in
Snow Depth Not available.
UV 0 out of 12
Pollen 4.70 out of 12
Air Quality Not available.
Flu Activity Not available.
METAR KGMJ 310035Z AUTO 08003KT 10SM CLR 30/20 A3011 RMK AO2

More Conditions Fewer Conditions

Nowcast | as of 5:47 PM CDT on July 30, 2015

At 5:47 PM...National Weather Service Doppler radars continued to detect scattered showers and thunderstorms affecting portions of southeast into western Arkansas...mainly along and southeast of a line from McAlester to Fort Smith. A couple stronger storms were located within northern Le Flore County. The main threat with these storms will be strong downburst winds...along with brief heavy rainfall and cloud to ground lightning. All this activity was moving toward the southeast...around 20 miles per hour. Through 6:30 PM...scattered showers and thunderstorms will remain possible across southeast Oklahoma and western Arkansas. Average rainfall will be around a tenth of an inch. Some of the storms could become strong to severe...with strong damaging winds being the main threat. Heavy rainfall and cloud to ground lightning will also be likely with any stronger storms.

×

10-Day Weather Forecast

×

Almanac

Astronomy

Jul. 30, 2015 Rise Set
Actual Time
Civil Twilight
Nautical Twilight
Astronomical Twilight
Moon
Length of Visible Light
Length of Day
Tomorrow will be .
, % of the Moon is Illuminated

Today's Extremes

State Highs State Lows

Community

WunderPhotos

Upload Photos

1,842,551 photos uploaded!

WunderBlogs® & News

Nearby

Air Quality

  Air Quality AQ Index Pollutant
Not available.

Snow Depth

Station Depth Elevation

Earthquake Activity

City Distance Mag. Time & Date
Minimum magnitude displayed is 2.5.

Coastal Water Temperatures

Place Temperature

Stations

Nearby Weather Stations

Station Location Temp. Windchill Dew Point Humidity Wind Precip. Elev Updated Type